createdAt,value
2019-03-15T00:04:09.559Z,0.00
2019-03-15T00:09:29.028Z,0.00
2019-03-15T00:12:15.657Z,0.00
2019-03-15T00:14:43.306Z,0.00
2019-03-15T00:17:13.070Z,0.00
2019-03-15T00:19:40.846Z,0.00
2019-03-15T00:22:27.263Z,0.00
2019-03-15T00:24:55.020Z,0.00
2019-03-15T00:27:37.147Z,0.00
2019-03-15T00:29:54.325Z,0.00
2019-03-15T00:32:22.100Z,0.00
2019-03-15T00:35:09.596Z,1.40
2019-03-15T00:37:59.075Z,0.00
2019-03-15T00:40:38.728Z,0.00
2019-03-15T00:43:15.091Z,0.00
2019-03-15T00:45:43.118Z,0.00
2019-03-15T00:48:29.520Z,0.00
2019-03-15T00:51:15.878Z,0.00
2019-03-15T00:54:02.314Z,0.00
2019-03-15T00:56:29.890Z,0.40
2019-03-15T00:58:57.519Z,0.00
2019-03-15T01:01:43.963Z,0.00
2019-03-15T01:04:30.396Z,0.60
2019-03-15T01:07:16.797Z,0.00
2019-03-15T01:12:36.340Z,0.00
2019-03-15T01:15:03.971Z,0.60
2019-03-15T01:17:50.701Z,0.00
2019-03-15T01:20:18.735Z,1.00
2019-03-15T01:25:39.604Z,1.00
2019-03-15T01:28:07.321Z,0.00
2019-03-15T01:30:35.162Z,0.00
2019-03-15T01:33:21.526Z,0.00
2019-03-15T01:35:49.252Z,0.00
2019-03-15T01:38:17.020Z,0.60
2019-03-15T01:41:04.275Z,0.00
2019-03-15T01:43:32.727Z,0.00
2019-03-15T01:46:19.410Z,0.00
2019-03-15T01:48:47.188Z,0.00
2019-03-15T01:51:35.934Z,0.80
2019-03-15T01:54:03.607Z,0.00
2019-03-15T01:59:06.993Z,1.00
2019-03-15T02:01:34.571Z,0.20
2019-03-15T02:06:38.473Z,0.20
2019-03-15T02:09:09.044Z,0.00
2019-03-15T02:11:35.511Z,0.00
2019-03-15T02:14:21.942Z,1.00
2019-03-15T02:16:49.732Z,0.00
2019-03-15T02:22:08.770Z,0.80
2019-03-15T02:24:36.381Z,0.20
2019-03-15T02:27:22.834Z,1.00
2019-03-15T02:30:09.304Z,1.00
2019-03-15T02:32:37.105Z,0.00
2019-03-15T02:35:23.385Z,1.00
2019-03-15T02:37:51.100Z,1.00
2019-03-15T02:40:18.762Z,0.00
2019-03-15T02:42:46.422Z,1.00
2019-03-15T02:45:14.142Z,0.80
2019-03-15T02:48:00.817Z,1.00
2019-03-15T02:50:29.386Z,0.20
2019-03-15T02:53:16.585Z,0.00
2019-03-15T02:55:44.251Z,0.00
2019-03-15T02:58:12.032Z,0.20
2019-03-15T03:00:58.480Z,1.00
2019-03-15T03:03:45.313Z,0.00
2019-03-15T03:06:14.639Z,0.00
2019-03-15T03:09:01.012Z,0.00
2019-03-15T03:11:29.315Z,2.20
2019-03-15T03:14:15.767Z,1.40
2019-03-15T03:17:02.217Z,0.20
2019-03-15T03:22:02.621Z,1.00
2019-03-15T03:24:30.221Z,1.00
2019-03-15T03:27:17.275Z,1.40
2019-03-15T03:30:04.946Z,1.00
2019-03-15T03:32:32.635Z,1.00
2019-03-15T03:35:19.071Z,1.00
2019-03-15T03:37:48.430Z,2.20
2019-03-15T03:40:19.773Z,0.00
2019-03-15T03:43:04.549Z,0.40
2019-03-15T03:45:50.919Z,1.00
2019-03-15T03:51:10.444Z,1.00
2019-03-15T03:53:38.611Z,1.00
2019-03-15T03:56:06.370Z,0.00
2019-03-15T03:58:34.026Z,0.00
2019-03-15T04:01:01.587Z,0.20
2019-03-15T04:03:29.354Z,0.00
2019-03-15T04:05:57.013Z,0.80
2019-03-15T04:08:24.677Z,1.00
2019-03-15T04:11:11.067Z,0.00
2019-03-15T04:13:57.519Z,0.80
2019-03-15T04:16:25.105Z,1.40
2019-03-15T04:19:11.440Z,1.00
2019-03-15T04:21:39.079Z,0.00
2019-03-15T04:24:06.771Z,0.40
2019-03-15T04:26:34.523Z,1.00
2019-03-15T04:29:02.581Z,0.00
2019-03-15T04:31:48.968Z,1.00
2019-03-15T04:34:16.661Z,0.20
2019-03-15T04:36:44.330Z,1.00
2019-03-15T04:42:05.092Z,0.00
2019-03-15T04:44:51.460Z,0.40
2019-03-15T04:47:38.280Z,0.20
2019-03-15T04:50:05.916Z,0.20
2019-03-15T04:52:52.351Z,0.00
2019-03-15T04:55:19.983Z,1.00
2019-03-15T04:57:47.670Z,0.00
2019-03-15T05:00:34.387Z,1.00
2019-03-15T05:03:02.019Z,0.00
2019-03-15T05:06:02.365Z,0.80
2019-03-15T05:08:21.811Z,0.00
2019-03-15T05:10:49.463Z,0.60
2019-03-15T05:13:17.125Z,0.00
2019-03-15T05:16:03.567Z,0.00
2019-03-15T05:21:09.301Z,1.00
2019-03-15T05:23:36.956Z,0.00
2019-03-15T05:26:05.043Z,0.00
2019-03-15T05:28:51.683Z,0.00
2019-03-15T05:36:35.047Z,0.00
2019-03-15T05:39:02.764Z,1.00
2019-03-15T05:41:49.191Z,0.00
2019-03-15T05:44:16.825Z,0.00
2019-03-15T05:46:44.723Z,0.80
2019-03-15T05:49:31.466Z,0.00
2019-03-15T05:51:59.271Z,0.00
2019-03-15T05:54:45.693Z,0.00
2019-03-15T05:57:13.443Z,1.00
2019-03-15T05:59:59.842Z,0.00
2019-03-15T06:05:20.684Z,1.00
2019-03-15T06:07:48.316Z,0.40
2019-03-15T06:10:34.786Z,0.00
2019-03-15T06:13:02.511Z,3.00
2019-03-15T06:18:35.322Z,1.40
2019-03-15T06:21:21.773Z,1.00
2019-03-15T06:23:51.271Z,3.20
2019-03-15T06:26:37.621Z,3.00
2019-03-15T06:29:05.291Z,3.00
2019-03-15T06:31:51.673Z,3.20
2019-03-15T06:34:19.719Z,3.00
2019-03-15T06:36:47.314Z,4.40
2019-03-15T06:39:17.420Z,4.40
2019-03-15T06:41:58.078Z,3.40
2019-03-15T06:44:27.549Z,2.20
2019-03-15T06:46:55.146Z,4.00
2019-03-15T06:49:22.723Z,1.00
2019-03-15T06:51:55.219Z,3.60
2019-03-15T06:54:22.838Z,3.00
2019-03-15T06:56:50.348Z,3.20
2019-03-15T06:59:18.259Z,3.80
2019-03-15T07:01:48.142Z,4.80
2019-03-15T07:04:17.287Z,3.40
2019-03-15T07:06:45.355Z,4.00
2019-03-15T07:09:13.176Z,4.00
2019-03-15T07:11:40.768Z,4.00
2019-03-15T07:14:08.737Z,5.60
2019-03-15T07:16:38.142Z,3.00
2019-03-15T07:19:05.640Z,4.80
2019-03-15T07:21:36.689Z,4.00
2019-03-15T07:24:03.602Z,2.60
2019-03-15T07:26:31.176Z,2.60
2019-03-15T07:28:59.586Z,1.40
2019-03-15T07:31:27.196Z,3.40
2019-03-15T07:33:54.924Z,3.80
2019-03-15T07:36:24.186Z,3.60
2019-03-15T07:38:51.806Z,3.00
2019-03-15T07:41:19.419Z,2.20
2019-03-15T07:43:47.505Z,1.00
2019-03-15T07:46:15.106Z,3.80
2019-03-15T07:48:42.749Z,3.80
2019-03-15T07:51:11.821Z,4.00
2019-03-15T07:53:39.716Z,3.40
2019-03-15T07:56:07.329Z,1.40
2019-03-15T07:58:35.395Z,4.00
2019-03-15T08:01:03.833Z,3.00
2019-03-15T08:03:32.260Z,3.00
2019-03-15T08:06:00.288Z,2.20
2019-03-15T08:08:28.360Z,1.40
2019-03-15T08:10:57.886Z,3.20
2019-03-15T08:13:25.776Z,1.00
2019-03-15T08:15:53.353Z,3.00
2019-03-15T08:18:21.009Z,0.80
2019-03-15T08:20:50.097Z,4.40
2019-03-15T08:23:17.713Z,1.40
2019-03-15T08:25:45.349Z,1.00
2019-03-15T08:28:13.311Z,2.60
2019-03-15T08:30:43.041Z,3.00
2019-03-15T08:33:11.250Z,2.20
2019-03-15T08:35:39.234Z,1.00
2019-03-15T08:38:07.057Z,2.20
2019-03-15T08:40:36.929Z,1.80
2019-03-15T08:43:04.905Z,1.00
2019-03-15T08:45:32.458Z,1.00
2019-03-15T08:48:00.114Z,1.00
2019-03-15T08:50:30.723Z,1.00
2019-03-15T08:52:58.411Z,3.00
2019-03-15T08:55:27.202Z,2.20
2019-03-15T08:57:55.181Z,0.00
2019-03-15T09:00:25.966Z,0.00
2019-03-15T09:02:53.608Z,0.00
2019-03-15T09:05:23.878Z,0.00
2019-03-15T09:07:52.790Z,0.00
2019-03-15T09:10:23.659Z,0.00
2019-03-15T09:12:50.388Z,0.00
2019-03-15T09:15:21.076Z,0.00
2019-03-15T09:17:48.626Z,0.00
2019-03-15T09:20:16.595Z,0.00
2019-03-15T09:22:50.092Z,0.00
2019-03-15T09:25:20.470Z,0.00
2019-03-15T09:27:47.388Z,0.00
2019-03-15T09:30:23.087Z,0.00
2019-03-15T09:32:44.228Z,0.00
2019-03-15T09:35:12.213Z,0.00
2019-03-15T09:37:40.204Z,0.00
2019-03-15T09:40:08.240Z,0.00
2019-03-15T09:42:35.874Z,0.00
2019-03-15T09:45:07.373Z,0.00
2019-03-15T09:47:33.556Z,0.00
2019-03-15T09:50:02.740Z,0.00
2019-03-15T09:52:33.168Z,0.00
2019-03-15T09:55:06.842Z,0.00
2019-03-15T09:57:34.601Z,0.00
2019-03-15T10:00:04.507Z,0.00
2019-03-15T10:02:32.422Z,0.00
2019-03-15T10:05:14.413Z,0.00
2019-03-15T10:07:47.763Z,0.00
2019-03-15T10:10:18.286Z,0.00
2019-03-15T10:12:44.746Z,0.00
2019-03-15T10:15:12.652Z,0.00
2019-03-15T10:17:40.280Z,0.00
2019-03-15T10:20:07.920Z,0.00
2019-03-15T10:22:35.814Z,0.00
2019-03-15T10:25:03.426Z,0.00
2019-03-15T10:27:30.997Z,0.00
2019-03-15T10:30:03.366Z,0.00
2019-03-15T10:32:29.356Z,0.00
2019-03-15T10:34:56.940Z,0.00
2019-03-15T10:37:24.881Z,0.00
2019-03-15T10:39:52.441Z,0.40
2019-03-15T10:42:20.069Z,0.00
2019-03-15T10:44:53.164Z,0.00
2019-03-15T10:47:24.015Z,0.00
2019-03-15T10:49:51.595Z,0.00
2019-03-15T10:52:22.283Z,0.40
2019-03-15T10:54:50.242Z,0.00
2019-03-15T10:57:17.885Z,0.00
2019-03-15T10:59:45.908Z,0.00
2019-03-15T11:02:13.614Z,0.00
2019-03-15T11:04:41.082Z,0.60
2019-03-15T11:07:08.995Z,0.20
2019-03-15T11:09:36.574Z,0.00
2019-03-15T11:12:04.228Z,0.00
2019-03-15T11:14:32.353Z,0.00
2019-03-15T11:17:02.054Z,0.00
2019-03-15T11:19:29.699Z,1.00
2019-03-15T11:22:00.106Z,0.00
2019-03-15T11:24:30.367Z,0.00
2019-03-15T11:26:58.358Z,1.40
2019-03-15T11:29:26.321Z,1.00
2019-03-15T11:31:54.384Z,2.60
2019-03-15T11:34:23.928Z,1.00
2019-03-15T11:36:58.364Z,1.80
2019-03-15T11:39:22.438Z,4.00
2019-03-15T11:41:55.855Z,4.00
2019-03-15T11:44:23.432Z,2.60
2019-03-15T11:46:51.055Z,3.60
2019-03-15T11:49:21.913Z,4.80
2019-03-15T11:51:52.076Z,4.00
2019-03-15T11:54:19.726Z,6.60
2019-03-15T11:56:51.735Z,2.20
2019-03-15T11:59:19.287Z,6.00
2019-03-15T12:02:03.177Z,4.00
2019-03-15T12:04:19.381Z,4.00
2019-03-15T12:06:53.253Z,4.40
2019-03-15T12:09:22.006Z,3.00
2019-03-15T12:11:50.649Z,6.00
2019-03-15T12:14:24.233Z,5.60
2019-03-15T12:16:52.151Z,4.40
2019-03-15T12:19:20.085Z,3.60
2019-03-15T12:21:47.714Z,6.60
2019-03-15T12:24:15.279Z,7.40
2019-03-15T12:26:43.253Z,5.80
2019-03-15T12:29:13.165Z,6.40
2019-03-15T12:31:40.719Z,1.40
2019-03-15T12:34:08.947Z,4.00
2019-03-15T12:36:36.545Z,4.80
2019-03-15T12:39:04.388Z,4.00
2019-03-15T12:41:36.336Z,3.20
2019-03-15T12:44:03.840Z,6.00
2019-03-15T12:46:33.099Z,1.80
2019-03-15T12:49:06.213Z,0.00
2019-03-15T12:51:34.553Z,4.00
2019-03-15T12:54:04.670Z,4.80
2019-03-15T12:56:32.625Z,8.20
2019-03-15T12:59:00.632Z,3.00
2019-03-15T13:01:38.155Z,5.20
2019-03-15T13:04:03.698Z,3.80
2019-03-15T13:06:31.796Z,5.60
2019-03-15T13:08:59.435Z,4.00
2019-03-15T13:11:31.559Z,1.00
2019-03-15T13:14:05.262Z,3.00
2019-03-15T13:16:33.235Z,4.00
2019-03-15T13:19:00.818Z,3.80
2019-03-15T13:21:28.545Z,3.00
2019-03-15T13:23:56.461Z,3.40
2019-03-15T13:26:24.062Z,3.80
2019-03-15T13:28:52.074Z,4.40
2019-03-15T13:31:20.070Z,2.60
2019-03-15T13:33:49.705Z,3.60
2019-03-15T13:36:17.307Z,3.00
2019-03-15T13:38:45.329Z,3.60
2019-03-15T13:41:16.566Z,4.80
2019-03-15T13:43:44.150Z,1.80
2019-03-15T13:46:12.213Z,0.20
2019-03-15T13:48:39.855Z,3.00
2019-03-15T13:51:07.406Z,3.20
2019-03-15T13:53:36.777Z,4.40
2019-03-15T13:56:04.419Z,0.00
2019-03-15T13:58:35.040Z,3.00
2019-03-15T14:01:03.109Z,3.00
2019-03-15T14:03:30.714Z,2.60
2019-03-15T14:05:58.281Z,3.00
2019-03-15T14:08:26.350Z,3.60
2019-03-15T14:10:54.157Z,3.00
2019-03-15T14:13:21.878Z,0.00
2019-03-15T14:15:49.853Z,3.00
2019-03-15T14:18:21.333Z,2.20
2019-03-15T14:20:48.463Z,4.00
2019-03-15T14:23:18.556Z,2.20
2019-03-15T14:25:50.835Z,3.00
2019-03-15T14:28:23.059Z,1.00
2019-03-15T14:30:50.079Z,3.40
2019-03-15T14:33:19.922Z,3.00
2019-03-15T14:35:49.349Z,1.80
2019-03-15T14:38:16.910Z,3.00
2019-03-15T14:40:44.437Z,3.00
2019-03-15T14:43:18.191Z,3.60
2019-03-15T14:45:43.193Z,1.40
2019-03-15T14:48:28.029Z,1.80
2019-03-15T14:50:59.197Z,3.20
2019-03-15T14:53:29.199Z,2.20
2019-03-15T14:55:59.157Z,1.00
2019-03-15T14:58:27.103Z,4.00
2019-03-15T15:00:54.710Z,3.00
2019-03-15T15:03:23.942Z,2.60
2019-03-15T15:05:53.118Z,1.00
2019-03-15T15:08:21.069Z,3.20
2019-03-15T15:10:50.343Z,1.00
2019-03-15T15:13:19.645Z,1.00
2019-03-15T15:15:47.287Z,3.00
2019-03-15T15:18:18.978Z,4.00
2019-03-15T15:20:47.168Z,3.00
2019-03-15T15:23:14.762Z,3.00
2019-03-15T15:25:43.473Z,2.60
2019-03-15T15:28:13.383Z,1.00
2019-03-15T15:30:42.865Z,3.00
2019-03-15T15:33:10.484Z,0.00
2019-03-15T15:35:41.725Z,1.00
2019-03-15T15:38:09.472Z,2.60
2019-03-15T15:40:37.031Z,1.00
2019-03-15T15:43:04.959Z,3.80
2019-03-15T15:45:32.629Z,1.00
2019-03-15T15:48:01.814Z,3.40
2019-03-15T15:50:29.790Z,0.80
2019-03-15T15:52:57.390Z,1.00
2019-03-15T15:55:28.128Z,3.40
2019-03-15T15:57:56.111Z,3.00
2019-03-15T16:00:23.711Z,2.60
2019-03-15T16:02:52.340Z,2.20
2019-03-15T16:05:20.258Z,3.00
2019-03-15T16:07:47.823Z,1.40
2019-03-15T16:10:18.614Z,2.60
2019-03-15T16:12:46.756Z,1.00
2019-03-15T16:15:14.332Z,1.00
2019-03-15T16:17:45.089Z,1.40
2019-03-15T16:20:17.711Z,3.00
2019-03-15T16:22:45.389Z,2.20
2019-03-15T16:25:15.999Z,1.00
2019-03-15T16:27:47.283Z,1.00
2019-03-15T16:30:14.835Z,1.40
2019-03-15T16:32:42.599Z,1.00
2019-03-15T16:35:20.751Z,2.60
2019-03-15T16:37:50.266Z,0.00
2019-03-15T16:40:20.932Z,1.00
2019-03-15T16:42:54.538Z,0.00
2019-03-15T16:45:22.158Z,0.00
2019-03-15T16:47:49.771Z,1.00
2019-03-15T16:50:17.621Z,1.00
2019-03-15T16:52:45.170Z,1.00
2019-03-15T16:55:15.318Z,0.00
2019-03-15T16:57:43.427Z,1.00
2019-03-15T17:00:11.046Z,0.00
2019-03-15T17:02:38.587Z,0.00
2019-03-15T17:05:06.566Z,0.00
2019-03-15T17:07:34.267Z,1.00
2019-03-15T17:10:02.627Z,0.20
2019-03-15T17:12:30.484Z,0.60
2019-03-15T17:15:00.500Z,0.00
2019-03-15T17:17:28.418Z,0.00
2019-03-15T17:19:56.466Z,0.00
2019-03-15T17:22:24.126Z,0.00
2019-03-15T17:24:51.798Z,1.00
2019-03-15T17:27:24.650Z,0.00
2019-03-15T17:29:52.394Z,2.20
2019-03-15T17:32:23.383Z,0.00
2019-03-15T17:34:51.456Z,1.00
2019-03-15T17:37:23.449Z,0.60
2019-03-15T17:39:59.877Z,1.80
2019-03-15T17:42:29.913Z,0.40
2019-03-15T17:44:59.239Z,2.20
2019-03-15T17:47:26.813Z,1.00
2019-03-15T17:49:56.829Z,2.60
2019-03-15T17:52:26.860Z,1.80
2019-03-15T17:54:54.443Z,1.00
2019-03-15T17:57:22.404Z,0.20
2019-03-15T17:59:59.325Z,1.00
2019-03-15T18:02:26.975Z,1.00
2019-03-15T18:04:54.960Z,0.60
2019-03-15T18:07:31.108Z,0.40
2019-03-15T18:09:58.703Z,0.40
2019-03-15T18:12:26.360Z,0.60
2019-03-15T18:14:54.024Z,0.00
2019-03-15T18:17:24.594Z,0.80
2019-03-15T18:19:52.149Z,0.00
2019-03-15T18:22:22.496Z,0.00
2019-03-15T18:24:50.529Z,0.00
2019-03-15T18:27:20.930Z,0.00
2019-03-15T18:29:50.798Z,1.00
2019-03-15T18:32:18.907Z,1.00
2019-03-15T18:34:46.641Z,1.00
2019-03-15T18:37:17.369Z,0.60
2019-03-15T18:39:45.048Z,1.00
2019-03-15T18:42:12.722Z,1.00
2019-03-15T18:44:40.718Z,3.00
2019-03-15T18:47:08.727Z,1.00
2019-03-15T18:49:36.368Z,1.00
2019-03-15T18:52:04.236Z,0.00
2019-03-15T18:54:34.133Z,0.00
2019-03-15T18:57:01.760Z,0.00
2019-03-15T18:59:39.348Z,1.00
2019-03-15T19:01:59.057Z,3.00
2019-03-15T19:04:32.370Z,1.80
2019-03-15T19:07:00.301Z,0.00
2019-03-15T19:09:28.067Z,1.00
2019-03-15T19:11:55.672Z,0.80
2019-03-15T19:14:54.619Z,0.80
2019-03-15T19:17:42.428Z,1.00
2019-03-15T19:23:04.615Z,3.00
2019-03-15T19:25:51.053Z,0.80
2019-03-15T19:28:18.762Z,3.00
2019-03-15T19:31:05.178Z,2.60
2019-03-15T19:33:35.347Z,0.00
2019-03-15T19:36:03.001Z,1.40
2019-03-15T19:38:49.444Z,1.00
2019-03-15T19:41:31.199Z,1.00
2019-03-15T19:43:46.667Z,1.00
2019-03-15T19:46:47.090Z,0.00
2019-03-15T19:51:55.201Z,1.00
2019-03-15T19:54:25.022Z,1.40
2019-03-15T19:57:11.380Z,1.40
2019-03-15T20:02:30.898Z,1.00
2019-03-15T20:04:58.529Z,1.00
2019-03-15T20:07:26.193Z,1.00
2019-03-15T20:10:16.062Z,1.00
2019-03-15T20:12:42.010Z,1.00
2019-03-15T20:15:09.625Z,1.00
2019-03-15T20:17:56.067Z,1.00
2019-03-15T20:20:23.773Z,0.00
2019-03-15T20:23:11.896Z,0.00
2019-03-15T20:26:12.320Z,0.40
2019-03-15T20:28:46.761Z,1.00
2019-03-15T20:31:14.538Z,1.00
2019-03-15T20:34:00.978Z,1.00
2019-03-15T20:36:28.606Z,0.00
2019-03-15T20:38:59.111Z,1.40
2019-03-15T20:41:45.468Z,0.60
2019-03-15T20:44:28.865Z,0.60
2019-03-15T20:46:42.765Z,1.00
2019-03-15T20:49:12.967Z,0.40
2019-03-15T20:51:40.554Z,0.00
2019-03-15T20:54:08.634Z,1.80
2019-03-15T20:57:07.352Z,1.80
2019-03-15T21:02:45.270Z,0.00
2019-03-15T21:05:02.364Z,1.00
2019-03-15T21:07:32.056Z,0.00
2019-03-15T21:10:00.046Z,1.00
2019-03-15T21:12:27.688Z,0.40
2019-03-15T21:14:55.744Z,0.00
2019-03-15T21:17:23.420Z,0.00
2019-03-15T21:19:56.024Z,0.60
2019-03-15T21:22:24.335Z,0.60
2019-03-15T21:24:51.888Z,1.00
2019-03-15T21:27:22.090Z,1.00
2019-03-15T21:30:08.499Z,0.40
2019-03-15T21:32:36.145Z,0.00
2019-03-15T21:35:22.596Z,0.20
2019-03-15T21:40:43.254Z,1.00
2019-03-15T21:43:10.904Z,0.40
2019-03-15T21:45:57.254Z,0.40
2019-03-15T21:48:27.431Z,0.00
2019-03-15T21:51:13.709Z,0.00
2019-03-15T21:53:41.475Z,0.00
2019-03-15T21:56:09.273Z,1.00
2019-03-15T21:58:56.691Z,0.60
2019-03-15T22:04:29.457Z,0.00
2019-03-15T22:06:57.683Z,1.40
2019-03-15T22:09:44.063Z,0.20
2019-03-15T22:12:11.848Z,0.40
2019-03-15T22:14:58.233Z,1.00
2019-03-15T22:20:21.286Z,0.60
2019-03-15T22:23:00.937Z,0.00
2019-03-15T22:25:36.995Z,0.20
2019-03-15T22:28:04.609Z,0.00
2019-03-15T22:31:16.073Z,0.00
2019-03-15T22:33:39.735Z,1.00
2019-03-15T22:36:40.174Z,1.00
2019-03-15T22:38:55.723Z,0.00
2019-03-15T22:41:42.049Z,1.00
2019-03-15T22:44:12.152Z,0.00
2019-03-15T22:46:58.499Z,0.00
2019-03-15T22:49:26.213Z,1.00
2019-03-15T22:51:53.874Z,0.00
2019-03-15T22:54:40.315Z,0.80
2019-03-15T22:57:26.763Z,0.00
2019-03-15T23:00:13.300Z,0.00
2019-03-15T23:02:59.798Z,0.00
2019-03-15T23:05:46.275Z,0.00
2019-03-15T23:11:19.606Z,0.20
2019-03-15T23:13:47.323Z,0.00
2019-03-15T23:16:33.758Z,0.80
2019-03-15T23:19:20.139Z,1.00
2019-03-15T23:21:47.804Z,0.00
2019-03-15T23:24:34.193Z,0.40
2019-03-15T23:27:20.616Z,0.00
2019-03-15T23:29:48.404Z,0.00
2019-03-15T23:32:34.842Z,0.00
2019-03-15T23:35:02.420Z,0.00
2019-03-15T23:37:50.083Z,0.00
2019-03-15T23:43:22.896Z,0.00
2019-03-15T23:45:50.595Z,0.00
2019-03-15T23:48:37.039Z,0.80
2019-03-15T23:51:25.344Z,0.20
2019-03-15T23:54:11.789Z,0.60
2019-03-15T23:56:41.909Z,0.00
2019-03-15T23:59:11.836Z,0.00
